Serge-Frolow Ile Tromelin, Reunion
Current Conditions -  °F | °C
As of 5:30 PM on Wednesday 26 Nov 2014 (Local Time) from FMEE Reporting Station
Scattered Clouds Scattered Clouds  
Wind Chill: 81°   Ceiling: Unl
Heat Index: 85°   Visibility: 6mi
Dew Point: 72°   Wind: 14mph
Humidity: 74%   Direction: 90°E
Pressure: 29.83"   Gusts: NA
Location:  15.88°S, 54.52°E
Report Text: FMEE 261330Z 09012KT 9999 FEW028 SCT066 27/22 Q1010 NOSIG
Loading
Personal Weather Stations






























Interactive Weather Map New forecast layout! Learn more

10-Day Weather Forecast

Advertisements
Track Severe Weather on mobile